Aérodrome :
LOGIN :

S'inscrire | Disclaimer

   EN    FR    IT 

 










Légende :    VFR   VFR Marginal   IFR   IFR Intensif   IFR Très Intensif
Visi : 
Plafond : 
>= 8 km
>= 3000ft
5 à 8 km
1000 à 3000 ft
1500m à 5 km
500 à 1000 ft
800 à 1500m
200 à 500 ft
< 800m
< 200 ft
Symboles :   Orages  Brouillard  Fortes neiges  Fortes précipitations  Vent > 20 kt
SIGMETs :   Divers  Orages  Givrage  Turbulence  Onde Orograph.  Cendres Volcan.






- Altitude de l'aérodrome : 184 ft
- Code IATA : NLV


UKON - Mykolaiv

DERNIER METAR :
  • 151400Z 30005MPS 9999 FEW026CB M04/M08 Q1011 R22/090075 NOSIG

METARs EXPIRÉS :
  • 151330Z 31007MPS 270V340 9999 FEW///CB M04/M08 Q1011 R22/090075 NOSIG
  • 151300Z 31007MPS CAVOK M03/M07 Q1010 R22/090075 NOSIG

TAF TAF UKON
Valide du 15 à 12h jusqu'au 15 à 21h UTC


151103Z 1512/1521 30006G13MPS 2100 BR SCT004 BKN007 SCT020CB TXM03/1512Z TNM11/1521Z
TEMPO 1512/1521 0500 +SHSN VV002



MET'MAP, la Météo Aéronautique d'un coup d'oeil ! - Copyright ORBIFLY Décembre 2007 - Disclaimer

ORBIFLY MET'MAP TEAM :

Programmation & Développement : Alexandra Zaïnal
Sur une idée originale de : Baudouin d'Aumeries
Assistance à la programmation : Marc-Olivier Méhu
Soutien technique & logistique : Manuel Goepfert

Contact : metmap@orbifly.com




SOURCES & CREDITS :

   NOAA